Wurtulla, Queensland

10:04 AM AEST on March 02, 2015 (GMT +1000)
Battery Hill Queenslad Australia | Change Station
CLOSE
Current Station
Personal Weather Station
Location: Battery Hill, QUEENSLAND
Elevation: 43 ft
Nearby Weather Stations

Elev 43 ft 26.77 °S, 153.13 °E | Updated 41 seconds ago

Mostly Cloudy
Mostly Cloudy
90.1 °F
Feels Like 126 °F
N
3.8
Wind Variable Wind from West
Gusts 6.9 mph

Today
High -- | Low -- °F
--% Chance of Precip.
Yesterday
High -- | Low -- °F
Precip. -- in
5:40 AM 6:18 PM
Waxing Gibbous, 88% visible
Pressure 29.92 in
Visibility 6.2 miles
Clouds Few 2200 ft
Mostly Cloudy 2500 ft
Heat Index 126 °F
Dew Point 88 °F
Humidity 94%
Rainfall 0.00 in
Snow Depth Not available.
UV 4 out of 12
Pollen Not available.
Air Quality Not available.
Flu Activity Not available.
METAR YBBN 012330Z 10008KT 9999 FEW022 BKN025 28/21 Q1013

More Conditions Fewer Conditions

Pressure 29.92 in
Visibility 6.2 miles
Clouds Few 2200 ft
Mostly Cloudy 2500 ft
Heat Index 126 °F
Dew Point 88 °F
Humidity 94%
Rainfall 0.00 in
Snow Depth Not available.
UV 4 out of 12
Pollen Not available.
Air Quality Not available.
Flu Activity Not available.
METAR YBBN 012330Z 10008KT 9999 FEW022 BKN025 28/21 Q1013

More Conditions Fewer Conditions

10-Day Weather Forecast

Almanac

Astronomy

Mar. 02, 2015 Rise Set
Actual Time
Civil Twilight
Nautical Twilight
Astronomical Twilight
Moon
Length of Visible Light
Length of Day
Tomorrow will be .
, % of the Moon is Illuminated

Today's Extremes

Country Highs Country Lows

Community

WunderPhotos

Upload Photos

1,801,634 photos uploaded!

WunderBlogs® & News

Nearby

Air Quality

  Air Quality AQ Index Pollutant
Not available.

Snow Depth

Station Depth Elevation

Earthquake Activity

City Distance Mag. Time & Date
Minimum magnitude displayed is 2.5.

Coastal Water Temperatures

Place Temperature

Nearby Weather Stations